createdAt,value
2018-12-19T00:01:15.819Z,7.70
2018-12-19T00:03:46.697Z,7.70
2018-12-19T00:06:17.255Z,7.70
2018-12-19T00:08:45.693Z,7.80
2018-12-19T00:11:14.384Z,7.80
2018-12-19T00:13:43.421Z,7.80
2018-12-19T00:16:12.175Z,7.80
2018-12-19T00:18:40.655Z,7.80
2018-12-19T00:21:09.370Z,7.80
2018-12-19T00:23:38.231Z,7.80
2018-12-19T00:26:06.696Z,7.80
2018-12-19T00:28:37.260Z,7.70
2018-12-19T00:31:07.773Z,7.80
2018-12-19T00:33:37.787Z,7.70
2018-12-19T00:36:07.823Z,7.70
2018-12-19T00:38:36.768Z,7.70
2018-12-19T00:41:05.393Z,7.70
2018-12-19T00:43:34.063Z,7.70
2018-12-19T00:46:02.749Z,7.70
2018-12-19T00:48:31.474Z,7.70
2018-12-19T00:51:00.347Z,7.70
2018-12-19T00:53:29.802Z,7.70
2018-12-19T00:55:58.544Z,7.70
2018-12-19T00:58:27.297Z,7.70
2018-12-19T01:00:55.335Z,7.70
2018-12-19T01:03:23.349Z,7.70
2018-12-19T01:05:51.308Z,7.60
2018-12-19T01:08:19.307Z,7.60
2018-12-19T01:10:47.313Z,7.60
2018-12-19T01:13:16.653Z,7.60
2018-12-19T01:15:44.629Z,7.60
2018-12-19T01:18:13.244Z,7.60
2018-12-19T01:20:41.665Z,7.60
2018-12-19T01:23:10.373Z,7.60
2018-12-19T01:25:38.388Z,7.50
2018-12-19T01:28:06.555Z,7.50
2018-12-19T01:30:34.527Z,7.50
2018-12-19T01:33:02.509Z,7.50
2018-12-19T01:35:31.499Z,7.50
2018-12-19T01:37:59.447Z,7.50
2018-12-19T01:40:28.322Z,7.50
2018-12-19T01:42:56.621Z,7.50
2018-12-19T01:45:25.458Z,7.50
2018-12-19T01:47:54.436Z,7.50
2018-12-19T01:50:23.248Z,7.50
2018-12-19T01:52:51.721Z,7.40
2018-12-19T01:55:20.225Z,7.50
2018-12-19T01:57:48.897Z,7.50
2018-12-19T02:00:19.561Z,7.50
2018-12-19T02:02:48.341Z,7.50
2018-12-19T02:05:16.293Z,7.50
2018-12-19T02:07:44.257Z,7.50
2018-12-19T02:10:12.429Z,7.50
2018-12-19T02:12:40.450Z,7.50
2018-12-19T02:15:08.439Z,7.50
2018-12-19T02:17:36.968Z,7.50
2018-12-19T02:20:05.771Z,7.50
2018-12-19T02:22:35.418Z,7.50
2018-12-19T02:25:04.305Z,7.50
2018-12-19T02:27:34.152Z,7.50
2018-12-19T02:30:02.803Z,7.50
2018-12-19T02:32:32.572Z,7.40
2018-12-19T02:35:01.233Z,7.40
2018-12-19T02:37:29.716Z,7.40
2018-12-19T02:39:58.626Z,7.50
2018-12-19T02:42:27.075Z,7.50
2018-12-19T02:44:55.964Z,7.50
2018-12-19T02:47:24.478Z,7.50
2018-12-19T02:49:53.116Z,7.50
2018-12-19T02:52:21.828Z,7.50
2018-12-19T02:54:50.547Z,7.50
2018-12-19T02:57:18.790Z,7.50
2018-12-19T02:59:47.243Z,7.50
2018-12-19T03:02:15.768Z,7.50
2018-12-19T03:04:44.436Z,7.50
2018-12-19T03:07:12.904Z,7.60
2018-12-19T03:09:43.113Z,7.60
2018-12-19T03:12:11.729Z,7.60
2018-12-19T03:14:40.384Z,7.60
2018-12-19T03:17:09.092Z,7.60
2018-12-19T03:19:37.549Z,7.60
2018-12-19T03:22:06.033Z,7.60
2018-12-19T03:24:34.738Z,7.60
2018-12-19T03:27:04.441Z,7.60
2018-12-19T03:29:33.130Z,7.60
2018-12-19T03:32:01.609Z,7.60
2018-12-19T03:34:30.074Z,7.60
2018-12-19T03:36:58.785Z,7.60
2018-12-19T03:39:27.280Z,7.60
2018-12-19T03:41:55.285Z,7.60
2018-12-19T03:44:24.011Z,7.60
2018-12-19T03:46:52.527Z,7.60
2018-12-19T03:49:21.729Z,7.60
2018-12-19T03:51:51.766Z,7.60
2018-12-19T03:54:20.672Z,7.60
2018-12-19T03:56:49.980Z,7.60
2018-12-19T03:59:18.608Z,7.60
2018-12-19T04:01:47.269Z,7.60
2018-12-19T04:04:15.977Z,7.60
2018-12-19T04:06:44.696Z,7.70
2018-12-19T04:09:13.323Z,7.70
2018-12-19T04:11:41.959Z,7.70
2018-12-19T04:14:10.499Z,7.70
2018-12-19T04:16:38.953Z,7.70
2018-12-19T04:19:07.658Z,7.70
2018-12-19T04:21:38.404Z,7.70
2018-12-19T04:24:06.857Z,7.70
2018-12-19T04:26:35.345Z,7.70
2018-12-19T04:29:03.842Z,7.70
2018-12-19T04:31:32.300Z,7.70
2018-12-19T04:34:00.785Z,7.70
2018-12-19T04:36:29.273Z,7.70
2018-12-19T04:38:57.773Z,7.70
2018-12-19T04:41:26.435Z,7.70
2018-12-19T04:43:55.151Z,7.70
2018-12-19T04:46:23.811Z,7.60
2018-12-19T04:48:52.293Z,7.60
2018-12-19T04:51:20.774Z,7.60
2018-12-19T04:53:49.440Z,7.60
2018-12-19T04:56:17.917Z,7.60
2018-12-19T04:58:46.419Z,7.60
2018-12-19T05:01:15.108Z,7.60
2018-12-19T05:03:43.588Z,7.60
2018-12-19T05:06:12.314Z,7.60
2018-12-19T05:08:40.291Z,7.50
2018-12-19T05:11:08.305Z,7.50
2018-12-19T05:13:36.341Z,7.50
2018-12-19T05:16:05.004Z,7.50
2018-12-19T05:18:33.669Z,7.50
2018-12-19T05:21:02.381Z,7.50
2018-12-19T05:23:31.047Z,7.50
2018-12-19T05:25:59.730Z,7.50
2018-12-19T05:28:28.472Z,7.50
2018-12-19T05:30:57.357Z,7.40
2018-12-19T05:33:25.417Z,7.40
2018-12-19T05:35:54.090Z,7.40
2018-12-19T05:38:22.953Z,7.40
2018-12-19T05:40:50.958Z,7.40
2018-12-19T05:43:18.977Z,7.40
2018-12-19T05:45:47.121Z,7.30
2018-12-19T05:48:15.150Z,7.30
2018-12-19T05:50:43.245Z,7.30
2018-12-19T05:53:11.270Z,7.30
2018-12-19T05:55:39.286Z,7.30
2018-12-19T05:58:07.359Z,7.30
2018-12-19T06:00:35.375Z,7.30
2018-12-19T06:03:05.405Z,7.30
2018-12-19T06:05:33.409Z,7.30
2018-12-19T06:08:01.349Z,7.30
2018-12-19T06:10:29.317Z,7.30
2018-12-19T06:12:57.295Z,7.20
2018-12-19T06:15:25.247Z,7.20
2018-12-19T06:17:53.212Z,7.20
2018-12-19T06:20:21.188Z,7.20
2018-12-19T06:22:49.160Z,7.20
2018-12-19T06:25:17.417Z,7.20
2018-12-19T06:27:47.654Z,7.20
2018-12-19T06:30:16.848Z,7.20
2018-12-19T06:32:44.830Z,7.10
2018-12-19T06:35:12.845Z,7.10
2018-12-19T06:37:40.823Z,7.10
2018-12-19T06:40:09.295Z,7.10
2018-12-19T06:42:37.285Z,7.10
2018-12-19T06:45:06.550Z,7.10
2018-12-19T06:47:34.524Z,7.10
2018-12-19T06:50:04.118Z,7.10
2018-12-19T06:52:32.493Z,7.10
2018-12-19T06:55:01.328Z,7.00
2018-12-19T06:57:29.817Z,7.00
2018-12-19T06:59:57.774Z,7.00
2018-12-19T07:02:26.122Z,7.00
2018-12-19T07:04:54.174Z,7.00
2018-12-19T07:07:22.137Z,7.00
2018-12-19T07:09:50.130Z,6.90
2018-12-19T07:12:18.156Z,6.90
2018-12-19T07:14:46.432Z,6.90
2018-12-19T07:17:14.442Z,6.90
2018-12-19T07:19:42.435Z,6.80
2018-12-19T07:22:10.415Z,6.80
2018-12-19T07:24:38.446Z,6.80
2018-12-19T07:27:06.485Z,6.80
2018-12-19T07:29:34.585Z,6.80
2018-12-19T07:32:02.561Z,6.70
2018-12-19T07:34:30.669Z,6.70
2018-12-19T07:36:58.652Z,6.70
2018-12-19T07:39:26.661Z,6.70
2018-12-19T07:41:55.103Z,6.70
2018-12-19T07:44:23.575Z,6.60
2018-12-19T07:46:52.047Z,6.60
2018-12-19T07:49:20.933Z,6.60
2018-12-19T07:51:49.857Z,6.60
2018-12-19T07:54:18.739Z,6.50
2018-12-19T07:56:47.214Z,6.50
2018-12-19T07:59:15.877Z,6.50
2018-12-19T08:01:44.356Z,6.50
2018-12-19T08:04:14.148Z,6.50
2018-12-19T08:06:43.374Z,6.50
2018-12-19T08:09:12.068Z,6.50
2018-12-19T08:11:40.777Z,6.40
2018-12-19T08:14:10.749Z,6.40
2018-12-19T08:16:39.539Z,6.40
2018-12-19T08:19:08.055Z,6.50
2018-12-19T08:21:37.001Z,6.50
2018-12-19T08:24:05.039Z,6.50
2018-12-19T08:26:34.306Z,6.50
2018-12-19T08:30:31.740Z,6.50
2018-12-19T08:32:59.717Z,6.50
2018-12-19T08:35:28.203Z,6.50
2018-12-19T08:37:57.096Z,6.50
2018-12-19T08:40:25.607Z,6.50
2018-12-19T08:42:54.032Z,6.60
2018-12-19T08:45:22.980Z,6.60
2018-12-19T08:47:51.676Z,6.60
2018-12-19T08:50:28.801Z,6.60
2018-12-19T08:52:57.648Z,6.70
2018-12-19T08:55:26.295Z,6.70
2018-12-19T08:57:54.735Z,6.70
2018-12-19T09:00:24.182Z,6.80
2018-12-19T09:02:52.746Z,6.90
2018-12-19T09:05:23.479Z,6.90
2018-12-19T09:07:52.243Z,6.90
2018-12-19T09:10:21.138Z,7.00
2018-12-19T09:12:50.075Z,7.00
2018-12-19T09:15:27.625Z,7.00
2018-12-19T09:17:55.603Z,7.10
2018-12-19T09:20:24.272Z,7.10
2018-12-19T09:22:52.972Z,7.20
2018-12-19T09:25:21.148Z,7.20
2018-12-19T09:27:49.302Z,7.20
2018-12-19T09:30:19.927Z,7.20
2018-12-19T09:32:49.502Z,7.20
2018-12-19T09:35:18.172Z,7.30
2018-12-19T09:37:46.628Z,7.30
2018-12-19T09:40:15.160Z,7.40
2018-12-19T09:42:43.997Z,7.40
2018-12-19T09:45:12.957Z,7.50
2018-12-19T09:47:41.773Z,7.50
2018-12-19T09:50:10.480Z,7.50
2018-12-19T09:52:39.524Z,7.50
2018-12-19T09:55:09.781Z,7.60
2018-12-19T09:57:38.634Z,7.60
2018-12-19T10:00:15.280Z,7.60
2018-12-19T10:02:43.760Z,7.60
2018-12-19T10:05:12.210Z,7.60
2018-12-19T10:07:40.711Z,7.70
2018-12-19T10:10:09.333Z,7.70
2018-12-19T10:12:38.090Z,7.70
2018-12-19T10:15:13.434Z,7.70
2018-12-19T10:17:42.216Z,7.70
2018-12-19T10:20:10.915Z,7.70
2018-12-19T10:22:39.948Z,7.70
2018-12-19T10:25:12.569Z,7.70
2018-12-19T10:27:41.212Z,7.70
2018-12-19T10:30:11.505Z,7.80
2018-12-19T10:32:40.622Z,7.80
2018-12-19T10:35:10.543Z,7.80
2018-12-19T10:37:39.042Z,7.80
2018-12-19T10:40:10.225Z,7.80
2018-12-19T10:42:38.702Z,7.80
2018-12-19T10:45:09.589Z,7.90
2018-12-19T10:47:38.325Z,7.90
2018-12-19T10:50:10.903Z,7.90
2018-12-19T10:52:39.787Z,8.00
2018-12-19T10:55:08.955Z,8.00
2018-12-19T10:57:37.472Z,8.00
2018-12-19T11:00:17.424Z,8.00
2018-12-19T11:02:45.921Z,8.00
2018-12-19T11:05:14.470Z,8.00
2018-12-19T11:07:42.929Z,8.00
2018-12-19T11:10:12.703Z,8.10
2018-12-19T11:12:42.182Z,8.10
2018-12-19T11:15:10.844Z,8.10
2018-12-19T11:17:39.568Z,8.10
2018-12-19T11:20:09.747Z,8.10
2018-12-19T11:22:38.151Z,8.10
2018-12-19T11:25:06.590Z,8.20
2018-12-19T11:27:35.130Z,8.20
2018-12-19T11:30:12.875Z,8.20
2018-12-19T11:32:42.578Z,8.20
2018-12-19T11:35:11.223Z,8.20
2018-12-19T11:37:40.077Z,8.20
2018-12-19T11:40:09.190Z,8.20
2018-12-19T11:42:40.979Z,8.20
2018-12-19T11:45:11.018Z,8.20
2018-12-19T11:47:40.877Z,8.20
2018-12-19T11:50:09.675Z,8.20
2018-12-19T11:52:38.784Z,8.20
2018-12-19T11:55:07.664Z,8.20
2018-12-19T11:57:36.673Z,8.30
2018-12-19T12:00:06.843Z,8.30
2018-12-19T12:02:36.398Z,8.30
2018-12-19T12:05:11.722Z,8.40
2018-12-19T12:07:44.554Z,8.40
2018-12-19T12:10:13.280Z,8.40
2018-12-19T12:12:43.190Z,8.50
2018-12-19T12:15:12.085Z,8.50
2018-12-19T12:17:42.818Z,8.60
2018-12-19T12:20:11.516Z,8.60
2018-12-19T12:22:41.285Z,8.70
2018-12-19T12:25:10.809Z,8.70
2018-12-19T12:27:39.583Z,8.80
2018-12-19T12:30:10.087Z,8.80
2018-12-19T12:32:38.341Z,8.90
2018-12-19T12:35:09.485Z,9.00
2018-12-19T12:37:37.489Z,9.00
2018-12-19T12:40:07.543Z,9.10
2018-12-19T12:42:37.430Z,9.10
2018-12-19T12:45:10.629Z,9.20
2018-12-19T12:47:40.927Z,9.20
2018-12-19T12:50:10.884Z,9.20
2018-12-19T12:52:39.964Z,9.30
2018-12-19T12:55:07.959Z,9.30
2018-12-19T12:57:36.861Z,9.30
2018-12-19T13:00:13.739Z,9.30
2018-12-19T13:02:43.734Z,9.30
2018-12-19T13:05:11.938Z,9.40
2018-12-19T13:07:39.957Z,9.40
2018-12-19T13:10:08.368Z,9.30
2018-12-19T13:12:36.379Z,9.30
2018-12-19T13:15:05.176Z,9.30
2018-12-19T13:17:33.987Z,9.30
2018-12-19T13:20:02.960Z,9.30
2018-12-19T13:22:32.477Z,9.30
2018-12-19T13:25:02.119Z,9.30
2018-12-19T13:27:32.187Z,9.30
2018-12-19T13:30:00.928Z,9.20
2018-12-19T13:32:29.586Z,9.20
2018-12-19T13:34:58.514Z,9.20
2018-12-19T13:37:27.613Z,9.20
2018-12-19T13:39:56.266Z,9.30
2018-12-19T13:42:24.305Z,9.30
2018-12-19T13:44:53.007Z,9.30
2018-12-19T13:47:21.724Z,9.30
2018-12-19T13:49:50.402Z,9.30
2018-12-19T13:52:19.321Z,9.30
2018-12-19T13:54:48.171Z,9.40
2018-12-19T13:57:17.114Z,9.40
2018-12-19T13:59:45.958Z,9.40
2018-12-19T14:02:14.662Z,9.50
2018-12-19T14:04:43.597Z,9.50
2018-12-19T14:07:12.553Z,9.40
2018-12-19T14:09:41.307Z,9.40
2018-12-19T14:12:12.406Z,9.40
2018-12-19T14:14:40.530Z,9.40
2018-12-19T14:17:09.470Z,9.40
2018-12-19T14:19:38.126Z,9.50
2018-12-19T14:22:07.021Z,9.50
2018-12-19T14:24:35.702Z,9.50
2018-12-19T14:27:04.385Z,9.50
2018-12-19T14:29:33.232Z,9.50
2018-12-19T14:32:01.725Z,9.50
2018-12-19T14:34:30.409Z,9.40
2018-12-19T14:36:58.930Z,9.50
2018-12-19T14:39:27.604Z,9.50
2018-12-19T14:41:56.250Z,9.50
2018-12-19T14:44:24.950Z,9.40
2018-12-19T14:46:53.492Z,9.40
2018-12-19T14:49:22.089Z,9.30
2018-12-19T14:51:50.583Z,9.30
2018-12-19T14:55:23.419Z,9.20
2018-12-19T14:57:52.409Z,9.20
2018-12-19T15:00:26.966Z,9.10
2018-12-19T15:02:56.009Z,9.10
2018-12-19T15:05:30.624Z,9.00
2018-12-19T15:07:59.576Z,9.00
2018-12-19T15:10:33.188Z,9.00
2018-12-19T15:13:07.455Z,9.00
2018-12-19T15:15:36.472Z,9.00
2018-12-19T15:18:05.661Z,9.00
2018-12-19T15:20:35.246Z,8.90
2018-12-19T15:23:03.916Z,8.90
2018-12-19T15:25:32.392Z,8.90
2018-12-19T15:28:00.866Z,8.90
2018-12-19T15:30:30.950Z,8.90
2018-12-19T15:32:59.808Z,8.80
2018-12-19T15:35:29.201Z,8.80
2018-12-19T15:38:05.044Z,8.80
2018-12-19T15:40:35.774Z,8.80
2018-12-19T15:43:04.620Z,8.80
2018-12-19T15:45:47.104Z,8.80
2018-12-19T15:48:30.599Z,8.70
2018-12-19T15:51:05.166Z,8.70
2018-12-19T15:53:33.835Z,8.70
2018-12-19T15:56:04.577Z,8.70
2018-12-19T15:58:35.554Z,8.60
2018-12-19T16:01:04.229Z,8.60
2018-12-19T16:03:39.788Z,8.60
2018-12-19T16:06:08.072Z,8.50
2018-12-19T16:08:36.790Z,8.50
2018-12-19T16:11:05.181Z,8.50
2018-12-19T16:13:33.344Z,8.50
2018-12-19T16:16:01.488Z,8.40
2018-12-19T16:18:29.530Z,8.40
2018-12-19T16:20:58.154Z,8.40
2018-12-19T16:23:26.826Z,8.30
2018-12-19T16:25:55.562Z,8.30
2018-12-19T16:28:24.425Z,8.20
2018-12-19T16:30:52.894Z,8.20
2018-12-19T16:33:21.609Z,8.20
2018-12-19T16:35:50.469Z,8.10
2018-12-19T16:38:18.959Z,8.00
2018-12-19T16:40:47.682Z,8.00
2018-12-19T16:43:16.693Z,8.00
2018-12-19T16:45:45.216Z,7.90
2018-12-19T16:48:13.721Z,7.90
2018-12-19T16:50:42.419Z,7.80
2018-12-19T16:53:10.574Z,7.80
2018-12-19T16:55:38.577Z,7.80
2018-12-19T16:58:06.593Z,7.70
2018-12-19T17:00:34.585Z,7.70
2018-12-19T17:03:21.161Z,7.60
2018-12-19T17:05:49.630Z,7.60
2018-12-19T17:08:18.327Z,7.60
2018-12-19T17:10:47.148Z,7.60
2018-12-19T17:13:15.681Z,7.50
2018-12-19T17:15:46.717Z,7.50
2018-12-19T17:18:15.713Z,7.40
2018-12-19T17:20:46.885Z,7.40
2018-12-19T17:23:19.239Z,7.40
2018-12-19T17:25:49.251Z,7.40
2018-12-19T17:28:19.911Z,7.30
2018-12-19T17:32:03.193Z,7.30
2018-12-19T17:34:36.024Z,7.20
2018-12-19T17:37:06.117Z,7.20
2018-12-19T17:39:35.011Z,7.10
2018-12-19T17:42:03.964Z,7.10
2018-12-19T17:44:40.026Z,7.10
2018-12-19T17:47:09.730Z,7.10
2018-12-19T17:49:44.416Z,7.00
2018-12-19T17:52:17.856Z,7.00
2018-12-19T17:54:51.381Z,7.00
2018-12-19T17:57:22.387Z,7.00
2018-12-19T18:00:02.305Z,7.00
2018-12-19T18:02:32.770Z,7.00
2018-12-19T18:05:02.641Z,6.90
2018-12-19T18:07:32.322Z,6.90
2018-12-19T18:15:15.955Z,6.90
2018-12-19T18:17:48.239Z,6.80
2018-12-19T18:20:18.605Z,6.80
2018-12-19T18:22:48.507Z,6.80
2018-12-19T18:25:18.077Z,6.70
2018-12-19T18:27:48.806Z,6.70
2018-12-19T18:30:21.380Z,6.70
2018-12-19T18:32:51.098Z,6.70
2018-12-19T18:35:21.936Z,6.70
2018-12-19T18:37:52.191Z,6.70
2018-12-19T18:40:22.546Z,6.60
2018-12-19T18:43:12.764Z,6.60
2018-12-19T18:45:56.477Z,6.60
2018-12-19T18:48:38.522Z,6.60
2018-12-19T18:51:23.270Z,6.60
2018-12-19T18:53:57.522Z,6.50
2018-12-19T18:56:28.571Z,6.60
2018-12-19T18:59:02.610Z,6.50
2018-12-19T19:01:43.408Z,6.50
2018-12-19T19:04:14.418Z,6.50
2018-12-19T19:06:44.924Z,6.50
2018-12-19T19:09:14.756Z,6.50
2018-12-19T19:11:46.481Z,6.50
2018-12-19T19:14:17.886Z,6.50
2018-12-19T19:16:47.521Z,6.50
2018-12-19T19:19:17.622Z,6.50
2018-12-19T19:21:46.666Z,6.50
2018-12-19T19:24:16.510Z,6.50
2018-12-19T19:26:46.132Z,6.50
2018-12-19T19:29:16.024Z,6.60
2018-12-19T19:31:45.724Z,6.60
2018-12-19T19:34:24.878Z,6.60
2018-12-19T19:36:52.081Z,6.60
2018-12-19T19:39:21.730Z,6.70
2018-12-19T19:41:52.927Z,6.70
2018-12-19T19:44:25.340Z,6.70
2018-12-19T19:46:55.704Z,6.70
2018-12-19T19:49:27.582Z,6.70
2018-12-19T19:51:57.669Z,6.70
2018-12-19T19:54:27.277Z,6.70
2018-12-19T19:56:58.229Z,6.70
2018-12-19T19:59:28.693Z,6.70
2018-12-19T20:01:58.811Z,6.70
2018-12-19T20:04:28.956Z,6.70
2018-12-19T20:07:01.136Z,6.70
2018-12-19T20:09:30.811Z,6.70
2018-12-19T20:12:03.180Z,6.70
2018-12-19T20:14:36.228Z,6.70
2018-12-19T20:17:04.795Z,6.70
2018-12-19T20:19:34.332Z,6.70
2018-12-19T20:22:04.744Z,6.70
2018-12-19T20:24:39.561Z,6.70
2018-12-19T20:27:09.381Z,6.70
2018-12-19T20:29:38.448Z,6.70
2018-12-19T20:32:07.405Z,6.70
2018-12-19T20:34:39.005Z,6.70
2018-12-19T20:37:14.767Z,6.70
2018-12-19T20:39:45.817Z,6.70
2018-12-19T20:42:16.056Z,6.70
2018-12-19T20:44:46.916Z,6.70
2018-12-19T20:47:19.584Z,6.70
2018-12-19T20:49:48.968Z,6.70
2018-12-19T20:52:18.882Z,6.70
2018-12-19T20:54:51.362Z,6.70
2018-12-19T20:57:23.059Z,6.70
2018-12-19T20:59:53.621Z,6.70
2018-12-19T21:02:22.619Z,6.70
2018-12-19T21:04:53.641Z,6.70
2018-12-19T21:07:22.793Z,6.70
2018-12-19T21:09:52.856Z,6.60
2018-12-19T21:12:22.911Z,6.60
2018-12-19T21:14:51.771Z,6.60
2018-12-19T21:17:26.751Z,6.60
2018-12-19T21:20:00.687Z,6.60
2018-12-19T21:22:32.156Z,6.60
2018-12-19T21:25:02.197Z,6.60
2018-12-19T21:27:33.851Z,6.60
2018-12-19T21:30:04.247Z,6.60
2018-12-19T21:32:36.841Z,6.60
2018-12-19T21:35:09.316Z,6.60
2018-12-19T21:37:42.018Z,6.60
2018-12-19T21:40:11.985Z,6.60
2018-12-19T21:42:42.643Z,6.60
2018-12-19T21:45:11.350Z,6.60
2018-12-19T21:47:39.902Z,6.60
2018-12-19T21:50:08.809Z,6.60
2018-12-19T21:52:37.439Z,6.60
2018-12-19T21:55:05.934Z,6.60
2018-12-19T21:57:34.644Z,6.60
2018-12-19T22:00:03.815Z,6.60
2018-12-19T22:02:32.408Z,6.60
2018-12-19T22:05:01.076Z,6.70
2018-12-19T22:07:29.917Z,6.70
2018-12-19T22:09:58.876Z,6.70
2018-12-19T22:12:27.558Z,6.70
2018-12-19T22:14:56.510Z,6.70
2018-12-19T22:17:31.251Z,6.70
2018-12-19T22:19:59.992Z,6.70
2018-12-19T22:22:28.871Z,6.70
2018-12-19T22:24:57.585Z,6.70
2018-12-19T22:27:26.431Z,6.70
2018-12-19T22:29:55.430Z,6.80
2018-12-19T22:32:24.248Z,6.80
2018-12-19T22:34:52.344Z,6.80
2018-12-19T22:37:21.989Z,6.80
2018-12-19T22:39:50.898Z,6.80
2018-12-19T22:42:19.793Z,6.80
2018-12-19T22:44:48.460Z,6.80
2018-12-19T22:47:18.125Z,6.80
2018-12-19T22:49:46.845Z,6.80
2018-12-19T22:52:15.630Z,6.80
2018-12-19T22:54:44.210Z,6.80
2018-12-19T22:57:12.714Z,6.80
2018-12-19T22:59:41.900Z,6.80
2018-12-19T23:02:16.632Z,6.80
2018-12-19T23:04:46.932Z,6.80
2018-12-19T23:07:15.853Z,6.80
2018-12-19T23:09:44.620Z,6.80
2018-12-19T23:12:13.416Z,6.80
2018-12-19T23:14:42.526Z,6.80
2018-12-19T23:17:22.282Z,6.80
2018-12-19T23:19:56.999Z,6.80
2018-12-19T23:22:31.761Z,6.80
2018-12-19T23:25:07.344Z,6.70
2018-12-19T23:27:38.358Z,6.80
2018-12-19T23:30:09.490Z,6.70
2018-12-19T23:32:38.401Z,6.70
2018-12-19T23:35:07.725Z,6.70
2018-12-19T23:37:36.596Z,6.70
2018-12-19T23:40:05.553Z,6.70
2018-12-19T23:42:34.742Z,6.70
2018-12-19T23:45:03.493Z,6.70
2018-12-19T23:47:32.079Z,6.60
2018-12-19T23:50:00.778Z,6.60
2018-12-19T23:52:29.664Z,6.60
2018-12-19T23:54:58.678Z,6.60
2018-12-19T23:57:27.264Z,6.60
2018-12-19T23:59:55.946Z,6.60
